Time;durP1;ratioP1;P1;durP2;ratioP2;P2;SDS_P1;SDS_P2;PMS_P1;PMS_P2;Temp;Humidity;BMP_temperature;BMP_pressure;BME280_temperature;BME280_humidity;BME280_pressure;Samples;Min_cycle;Max_cycle;Signal;HPM_P1;HPM_P2
2023/10/19 00:00:19;;;;;;;1.58;0.82;;;14.70;99.90;;;;;;5083586;28;20136;-84
2023/10/19 00:02:51;;;;;;;2.05;0.50;;;14.60;99.90;;;;;;5093401;28;20043;-85
2023/10/19 00:05:19;;;;;;;1.70;0.50;;;14.60;99.90;;;;;;5082825;28;20080;-84
2023/10/19 00:07:47;;;;;;;1.13;0.40;;;14.50;44.40;;;;;;5049364;28;20060;-84
2023/10/19 00:10:17;;;;;;;1.13;0.50;;;14.50;1.00;;;;;;5083097;28;20044;-85
2023/10/19 00:12:50;;;;;;;1.30;0.30;;;14.40;1.00;;;;;;5093607;28;20146;-85
2023/10/19 00:15:23;;;;;;;1.52;0.50;;;14.40;1.00;;;;;;5102361;28;20056;-85
2023/10/19 00:17:53;;;;;;;1.33;0.47;;;14.30;66.20;;;;;;5105569;28;20052;-85
2023/10/19 00:20:51;;;;;;;1.05;0.47;;;14.20;31.90;;;;;;5073415;28;20309;-84
2023/10/19 00:23:34;;;;;;;1.45;0.65;;;14.20;67.00;;;;;;5105502;28;20469;-84
2023/10/19 00:26:10;;;;;;;0.63;0.40;;;14.10;99.90;;;;;;5106850;28;20373;-85
2023/10/19 00:28:38;;;;;;;1.58;0.55;;;14.10;99.90;;;;;;5074228;28;20059;-84
2023/10/19 00:31:08;;;;;;;1.70;0.45;;;14.20;84.90;;;;;;5105397;28;20503;-86
2023/10/19 00:33:38;;;;;;;2.13;0.70;;;14.20;88.70;;;;;;5089477;28;20077;-85
2023/10/19 00:36:12;;;;;;;2.20;0.60;;;14.30;99.90;;;;;;5106019;28;20047;-85
2023/10/19 00:41:27;;;;;;;0.38;0.30;;;14.40;39.20;;;;;;5090168;28;20478;-86
2023/10/19 00:44:11;;;;;;;0.88;0.40;;;14.40;92.70;;;;;;5075447;28;20069;-85
2023/10/19 00:49:13;;;;;;;1.35;0.30;;;14.40;99.90;;;;;;5086140;28;20048;-86
2023/10/19 00:52:11;;;;;;;1.23;0.40;;;14.30;99.90;;;;;;5073350;28;20044;-85
2023/10/19 00:57:32;;;;;;;1.00;0.38;;;14.30;99.90;;;;;;5090709;28;20071;-86
2023/10/19 01:00:11;;;;;;;0.25;0.17;;;14.30;1.00;;;;;;5105622;28;20051;-86
2023/10/19 01:02:43;;;;;;;1.67;0.50;;;14.20;1.00;;;;;;5088051;28;20438;-85
2023/10/19 01:05:13;;;;;;;0.30;0.30;;;14.20;5.40;;;;;;5101977;28;20055;-86
2023/10/19 01:07:40;;;;;;;0.65;0.55;;;14.20;89.60;;;;;;5071860;28;20043;-85
2023/10/19 01:10:08;;;;;;;1.02;0.40;;;14.20;99.90;;;;;;5104486;28;20054;-85
2023/10/19 01:12:44;;;;;;;2.03;0.60;;;14.20;99.90;;;;;;5088265;28;20047;-84
2023/10/19 01:15:16;;;;;;;1.55;0.63;;;14.20;99.90;;;;;;5074235;28;20075;-85
2023/10/19 01:17:45;;;;;;;0.75;0.47;;;14.30;99.90;;;;;;5072981;28;20154;-84
2023/10/19 01:20:22;;;;;;;0.95;0.50;;;14.30;99.90;;;;;;5089338;28;20107;-84
2023/10/19 01:23:39;;;;;;;0.65;0.25;;;14.40;99.90;;;;;;5086718;28;20048;-85
2023/10/19 01:31:08;;;;;;;0.50;0.20;;;14.50;99.90;;;;;;5098472;28;20063;-84
2023/10/19 01:33:35;;;;;;;0.20;0.20;;;14.50;99.90;;;;;;5086739;28;20047;-84
2023/10/19 01:36:14;;;;;;;0.55;0.30;;;14.50;99.90;;;;;;5070490;28;20138;-84
2023/10/19 01:38:41;;;;;;;0.43;0.17;;;14.60;99.90;;;;;;5074603;28;20051;-85
2023/10/19 01:41:18;;;;;;;0.52;0.13;;;14.60;99.90;;;;;;5089733;28;20108;-85
2023/10/19 01:43:50;;;;;;;0.43;0.10;;;14.60;99.90;;;;;;5090173;28;20055;-85
2023/10/19 01:46:33;;;;;;;0.20;0.10;;;14.60;1.00;;;;;;5076047;28;20430;-84
2023/10/19 01:49:02;;;;;;;0.20;0.20;;;14.70;1.00;;;;;;5105338;28;20553;-84
2023/10/19 01:51:32;;;;;;;0.65;0.38;;;14.70;1.00;;;;;;5104998;28;20083;-84
2023/10/19 01:54:00;;;;;;;0.05;0.05;;;14.80;1.00;;;;;;5069849;28;20444;-84
2023/10/19 01:56:28;;;;;;;0.30;0.20;;;14.80;1.00;;;;;;5086091;28;20090;-84
2023/10/19 01:58:57;;;;;;;0.65;0.30;;;14.90;1.00;;;;;;5103078;28;20040;-84
2023/10/19 02:03:58;;;;;;;0.75;0.30;;;14.90;1.00;;;;;;5104481;28;20138;-84
2023/10/19 02:06:28;;;;;;;0.20;0.10;;;15.00;1.00;;;;;;5104696;28;20497;-85
2023/10/19 02:09:00;;;;;;;0.20;0.20;;;15.00;1.00;;;;;;5088271;28;20444;-84
2023/10/19 02:11:28;;;;;;;0.63;0.20;;;15.10;1.00;;;;;;5087605;28;20051;-85
2023/10/19 02:13:59;;;;;;;0.10;0.10;;;15.10;1.00;;;;;;5089481;28;20301;-83
2023/10/19 02:16:32;;;;;;;1.15;0.40;;;15.20;1.00;;;;;;5108400;28;20047;-84
2023/10/19 02:19:01;;;;;;;0.10;0.10;;;15.20;1.00;;;;;;5072730;28;20044;-84
2023/10/19 02:21:32;;;;;;;0.52;0.20;;;15.20;1.00;;;;;;5088177;28;20055;-84
2023/10/19 02:24:00;;;;;;;0.10;0.10;;;15.30;1.00;;;;;;5083120;28;20044;-83
2023/10/19 02:26:27;;;;;;;0.13;0.10;;;15.30;1.00;;;;;;5104247;28;20071;-82
2023/10/19 02:28:56;;;;;;;0.10;0.10;;;15.30;1.00;;;;;;5087936;28;20123;-82
2023/10/19 02:31:24;;;;;;;0.40;0.10;;;15.30;1.00;;;;;;5088050;28;20095;-82
2023/10/19 02:33:58;;;;;;;0.10;0.10;;;15.30;1.00;;;;;;5103865;28;20053;-83
2023/10/19 02:36:30;;;;;;;0.20;0.10;;;15.30;1.00;;;;;;5108276;28;20048;-83
2023/10/19 02:39:04;;;;;;;0.77;0.17;;;15.30;1.00;;;;;;5074790;28;20043;-82
2023/10/19 02:41:31;;;;;;;0.20;0.20;;;15.30;1.00;;;;;;5075640;28;20085;-83
2023/10/19 02:44:09;;;;;;;0.40;0.20;;;15.30;1.00;;;;;;5074392;28;20432;-83
2023/10/19 02:46:41;;;;;;;0.10;0.10;;;15.30;1.00;;;;;;5077963;28;20150;-83
2023/10/19 02:49:13;;;;;;;0.38;0.20;;;15.40;1.00;;;;;;5075647;28;20047;-83
2023/10/19 02:51:44;;;;;;;0.38;0.20;;;15.40;1.00;;;;;;5091923;28;20297;-83
2023/10/19 02:54:33;;;;;;;0.45;0.30;;;15.40;1.00;;;;;;5074250;28;20094;-83
2023/10/19 02:57:02;;;;;;;0.70;0.20;;;15.50;1.00;;;;;;5079194;28;20520;-83
2023/10/19 02:59:29;;;;;;;0.77;0.22;;;15.50;1.00;;;;;;5074384;28;20512;-83
2023/10/19 03:04:40;;;;;;;0.35;0.30;;;15.50;1.00;;;;;;5090907;28;20055;-83
2023/10/19 03:07:07;;;;;;;0.20;0.20;;;15.60;1.00;;;;;;5072661;28;20158;-83
2023/10/19 03:09:37;;;;;;;0.20;0.20;;;15.60;1.00;;;;;;5087854;28;20140;-83
2023/10/19 03:12:10;;;;;;;0.13;0.13;;;15.60;1.00;;;;;;5072512;28;20047;-83
2023/10/19 03:14:37;;;;;;;0.52;0.20;;;15.60;1.00;;;;;;5073329;28;20051;-83
2023/10/19 03:17:05;;;;;;;0.28;0.20;;;15.60;1.00;;;;;;5071570;28;20048;-83
2023/10/19 03:19:33;;;;;;;0.57;0.28;;;15.70;1.00;;;;;;5088748;28;20047;-83
2023/10/19 03:22:05;;;;;;;0.90;0.38;;;15.70;1.00;;;;;;5088548;28;20501;-83
2023/10/19 03:24:40;;;;;;;0.70;0.40;;;15.70;1.00;;;;;;5105413;28;20055;-83
2023/10/19 03:27:15;;;;;;;0.47;0.30;;;15.70;1.00;;;;;;5089089;28;20149;-83
2023/10/19 03:29:53;;;;;;;1.33;0.30;;;15.70;1.00;;;;;;5088819;28;20046;-83
2023/10/19 03:32:26;;;;;;;0.65;0.30;;;15.70;1.00;;;;;;5074373;28;20134;-83
2023/10/19 03:35:01;;;;;;;0.73;0.32;;;15.70;99.90;;;;;;5072110;28;20100;-84
2023/10/19 03:37:31;;;;;;;0.73;0.30;;;15.80;99.90;;;;;;5086018;28;20527;-82
2023/10/19 03:39:58;;;;;;;0.55;0.32;;;15.80;99.90;;;;;;5103472;28;20130;-84
2023/10/19 03:42:28;;;;;;;1.08;0.47;;;15.80;99.90;;;;;;5086936;28;20143;-83
2023/10/19 03:44:57;;;;;;;0.80;0.50;;;15.80;99.90;;;;;;5106151;28;20138;-83
2023/10/19 03:47:38;;;;;;;0.50;0.40;;;15.80;99.90;;;;;;5086831;28;20346;-83
2023/10/19 03:50:06;;;;;;;1.08;0.50;;;15.80;99.90;;;;;;5084657;28;20155;-83
2023/10/19 03:52:37;;;;;;;1.80;0.30;;;15.80;99.90;;;;;;5086898;28;20091;-83
2023/10/19 03:55:11;;;;;;;1.83;0.70;;;15.80;99.90;;;;;;5104074;28;20460;-83
2023/10/19 03:57:41;;;;;;;0.50;0.35;;;15.80;99.90;;;;;;5103902;28;20051;-83
2023/10/19 04:00:16;;;;;;;1.08;0.50;;;15.80;99.90;;;;;;5087706;28;20050;-83
2023/10/19 04:02:43;;;;;;;0.75;0.30;;;15.80;99.90;;;;;;5088407;28;20055;-84
2023/10/19 04:05:14;;;;;;;0.60;0.30;;;15.90;99.90;;;;;;5087718;28;20153;-84
2023/10/19 04:07:43;;;;;;;1.20;0.40;;;15.90;99.90;;;;;;5088293;28;20051;-83
2023/10/19 04:10:29;;;;;;;1.42;0.80;;;15.90;99.90;;;;;;5103609;28;20056;-84
2023/10/19 04:12:59;;;;;;;1.67;0.60;;;15.90;99.90;;;;;;5089271;28;20055;-84
2023/10/19 04:15:29;;;;;;;1.05;0.50;;;15.90;99.90;;;;;;5104396;28;20052;-84
2023/10/19 04:17:58;;;;;;;1.33;0.40;;;15.90;99.90;;;;;;5103935;28;20147;-83
2023/10/19 04:22:53;;;;;;;1.67;0.60;;;15.90;99.90;;;;;;5105332;28;20124;-84
2023/10/19 04:25:20;;;;;;;1.10;0.35;;;15.90;99.90;;;;;;5104306;28;20086;-84
2023/10/19 04:27:48;;;;;;;0.93;0.50;;;15.90;99.90;;;;;;5103770;28;20083;-82
2023/10/19 04:30:16;;;;;;;0.85;0.50;;;15.90;99.90;;;;;;5105223;28;20345;-83
2023/10/19 04:32:44;;;;;;;0.50;0.30;;;15.90;99.90;;;;;;5061941;28;20151;-83
2023/10/19 04:35:13;;;;;;;1.17;0.57;;;15.90;99.90;;;;;;5096167;28;20052;-82
2023/10/19 04:37:42;;;;;;;1.13;0.55;;;15.80;1.00;;;;;;5076024;28;20058;-84
2023/10/19 04:40:10;;;;;;;0.77;0.40;;;15.80;1.00;;;;;;5104966;28;20100;-83
2023/10/19 04:42:39;;;;;;;0.88;0.45;;;15.80;1.00;;;;;;5090773;28;20067;-84
2023/10/19 04:45:11;;;;;;;0.52;0.40;;;15.80;1.00;;;;;;5085501;28;20118;-83
2023/10/19 04:47:39;;;;;;;0.77;0.45;;;15.90;1.00;;;;;;5084235;28;20048;-83
2023/10/19 04:50:07;;;;;;;1.05;0.40;;;15.90;1.00;;;;;;5068017;28;20136;-84
2023/10/19 04:52:36;;;;;;;0.47;0.40;;;15.90;1.00;;;;;;5073682;28;20048;-84
2023/10/19 04:55:03;;;;;;;1.35;0.50;;;15.90;1.00;;;;;;5087729;28;20056;-84
2023/10/19 04:57:30;;;;;;;1.50;0.60;;;15.90;1.00;;;;;;5100137;28;20133;-83
2023/10/19 04:59:58;;;;;;;2.38;0.95;;;15.90;1.00;;;;;;5078776;28;20108;-83
2023/10/19 05:02:25;;;;;;;2.25;0.90;;;15.90;1.00;;;;;;5077780;28;20108;-82
2023/10/19 05:04:53;;;;;;;1.20;0.80;;;15.90;99.90;;;;;;5095863;28;20123;-83
2023/10/19 05:07:21;;;;;;;1.80;0.73;;;15.90;99.90;;;;;;5095872;28;20175;-83
2023/10/19 05:09:48;;;;;;;1.90;0.68;;;16.00;99.90;;;;;;5098423;28;20074;-83
2023/10/19 05:12:15;;;;;;;1.88;0.93;;;16.00;99.90;;;;;;5054344;28;20509;-84
2023/10/19 05:14:42;;;;;;;1.50;0.60;;;16.00;99.90;;;;;;5082640;28;20462;-84
2023/10/19 05:17:09;;;;;;;1.52;0.70;;;16.00;99.90;;;;;;5102840;28;20112;-84
2023/10/19 05:19:37;;;;;;;2.08;0.70;;;16.00;99.90;;;;;;5101739;28;20055;-83
2023/10/19 05:22:08;;;;;;;1.35;0.60;;;16.10;99.90;;;;;;5088380;27;20557;-82
2023/10/19 05:24:37;;;;;;;2.80;0.93;;;16.10;99.90;;;;;;5087867;28;20127;-86
2023/10/19 05:27:05;;;;;;;1.33;0.63;;;16.00;99.90;;;;;;5068360;28;20048;-86
2023/10/19 05:29:33;;;;;;;1.13;0.43;;;16.10;99.90;;;;;;5055778;28;20453;-86
2023/10/19 05:32:00;;;;;;;0.77;0.40;;;16.10;99.90;;;;;;5078748;28;20055;-85
2023/10/19 05:34:29;;;;;;;1.27;0.50;;;16.00;99.90;;;;;;5061030;28;20244;-83
2023/10/19 05:36:58;;;;;;;1.48;0.50;;;16.00;99.90;;;;;;5075615;28;20055;-80
2023/10/19 05:39:27;;;;;;;1.75;0.63;;;16.00;99.90;;;;;;5084583;28;20063;-92
2023/10/19 05:41:55;;;;;;;1.80;0.77;;;16.00;99.90;;;;;;5086394;28;20055;-89
2023/10/19 05:44:24;;;;;;;0.93;0.65;;;16.00;99.90;;;;;;5099883;28;20052;-88
2023/10/19 05:46:52;;;;;;;1.95;0.98;;;16.10;99.90;;;;;;5099600;27;20485;-90
2023/10/19 05:49:19;;;;;;;0.95;0.60;;;16.10;78.60;;;;;;5096977;28;20050;-90
2023/10/19 05:51:48;;;;;;;1.48;0.63;;;16.10;21.70;;;;;;5109423;28;20058;-89
2023/10/19 05:54:23;;;;;;;1.70;0.90;;;16.10;1.00;;;;;;5105141;28;20044;-93
2023/10/19 05:56:53;;;;;;;2.75;1.00;;;16.20;1.00;;;;;;5087293;28;20052;-92
2023/10/19 05:59:20;;;;;;;2.05;0.70;;;16.10;1.00;;;;;;5098055;28;20112;-92
2023/10/19 06:01:47;;;;;;;1.60;1.02;;;16.10;1.00;;;;;;5097469;28;20059;-90
2023/10/19 06:04:16;;;;;;;1.17;0.70;;;16.10;1.00;;;;;;5089495;28;20044;-91
2023/10/19 06:06:57;;;;;;;0.82;0.50;;;16.10;1.00;;;;;;5100193;28;20040;-93
2023/10/19 06:09:29;;;;;;;1.08;0.55;;;16.10;1.00;;;;;;5098573;28;20060;-93
2023/10/19 06:11:56;;;;;;;1.17;0.68;;;16.10;1.00;;;;;;5106488;28;20044;-91
2023/10/19 06:14:24;;;;;;;0.82;0.50;;;16.10;11.90;;;;;;5090301;28;20044;-84
2023/10/19 06:16:53;;;;;;;1.90;0.82;;;16.10;53.80;;;;;;5099670;28;20044;-91
2023/10/19 06:19:21;;;;;;;1.23;0.50;;;16.00;66.30;;;;;;5115576;28;20081;-92
2023/10/19 06:21:50;;;;;;;1.05;0.50;;;16.00;1.00;;;;;;5078373;28;20047;-90
2023/10/19 06:24:18;;;;;;;2.03;0.68;;;16.00;28.10;;;;;;5078344;28;20051;-91
2023/10/19 06:26:47;;;;;;;1.42;0.60;;;16.00;44.10;;;;;;5112286;28;20116;-90
2023/10/19 06:29:13;;;;;;;2.22;0.50;;;16.00;81.80;;;;;;5077878;28;20059;-90
2023/10/19 06:31:40;;;;;;;1.48;0.77;;;16.10;66.80;;;;;;5080053;28;20104;-90
2023/10/19 06:34:07;;;;;;;2.25;0.80;;;16.00;54.40;;;;;;5080294;28;20124;-90
2023/10/19 06:36:34;;;;;;;1.95;0.70;;;16.10;68.50;;;;;;5076417;28;20099;-90
2023/10/19 06:39:05;;;;;;;2.63;1.02;;;16.10;56.00;;;;;;5060494;28;20059;-91
2023/10/19 06:41:33;;;;;;;1.30;0.50;;;16.20;33.10;;;;;;5083354;28;20043;-90
2023/10/19 06:44:01;;;;;;;0.45;0.45;;;16.20;37.90;;;;;;5077318;28;20490;-91
2023/10/19 06:46:30;;;;;;;1.42;0.65;;;16.20;22.10;;;;;;5114103;28;20372;-91
2023/10/19 06:49:00;;;;;;;0.60;0.45;;;16.20;8.20;;;;;;5104040;28;20505;-90
2023/10/19 06:51:27;;;;;;;3.67;0.93;;;16.20;1.00;;;;;;5078769;28;20101;-90
2023/10/19 06:53:55;;;;;;;1.67;0.40;;;16.20;1.00;;;;;;5075840;28;20051;-90
2023/10/19 06:56:22;;;;;;;2.80;0.93;;;16.20;1.00;;;;;;5074600;28;20040;-90
2023/10/19 06:58:49;;;;;;;1.83;0.90;;;16.20;1.00;;;;;;5058422;28;20059;-90
2023/10/19 07:01:17;;;;;;;1.98;0.80;;;16.30;1.00;;;;;;5061467;28;20097;-90
2023/10/19 07:03:45;;;;;;;2.72;0.80;;;16.30;1.00;;;;;;5110113;28;20126;-91
2023/10/19 07:06:13;;;;;;;1.80;0.55;;;16.30;1.00;;;;;;5100709;28;20123;-90
2023/10/19 07:08:41;;;;;;;0.77;0.43;;;16.30;1.00;;;;;;5113176;28;20082;-91
2023/10/19 07:11:09;;;;;;;2.42;0.80;;;16.40;1.00;;;;;;5104492;28;20070;-91
2023/10/19 07:13:36;;;;;;;0.70;0.55;;;16.40;1.00;;;;;;5096268;28;20082;-91
2023/10/19 07:16:04;;;;;;;0.60;0.47;;;16.40;1.00;;;;;;5079843;28;20044;-89
2023/10/19 07:18:42;;;;;;;1.95;0.80;;;16.40;1.00;;;;;;5078234;28;20063;-93
2023/10/19 07:21:11;;;;;;;1.65;0.95;;;16.40;99.90;;;;;;5095270;28;20060;-92
2023/10/19 07:23:40;;;;;;;1.30;0.60;;;16.40;99.90;;;;;;5110396;28;20397;-93
2023/10/19 07:26:07;;;;;;;1.30;0.50;;;16.40;99.90;;;;;;5093458;28;20051;-93
2023/10/19 07:28:35;;;;;;;2.67;0.63;;;16.50;99.90;;;;;;5077134;28;20048;-92
2023/10/19 07:31:09;;;;;;;1.45;0.50;;;16.50;99.90;;;;;;5077164;28;20193;-92
2023/10/19 07:33:45;;;;;;;1.40;0.60;;;16.40;99.90;;;;;;5076373;28;20583;-93
2023/10/19 07:36:17;;;;;;;0.90;0.50;;;16.40;99.90;;;;;;5093100;28;20082;-92
2023/10/19 07:38:46;;;;;;;0.90;0.60;;;16.40;99.90;;;;;;5110951;28;20055;-93
2023/10/19 07:41:14;;;;;;;1.73;0.68;;;16.50;99.90;;;;;;5094539;28;20044;-93
2023/10/19 07:43:43;;;;;;;0.80;0.30;;;16.50;99.90;;;;;;5109935;28;20058;-92
2023/10/19 07:46:11;;;;;;;2.03;0.75;;;16.60;99.90;;;;;;5108855;28;20054;-91
2023/10/19 07:48:42;;;;;;;1.60;0.30;;;16.60;99.90;;;;;;5077036;28;20054;-92
2023/10/19 07:51:11;;;;;;;0.73;0.30;;;16.70;99.90;;;;;;5110135;27;20062;-92
2023/10/19 07:53:38;;;;;;;0.65;0.52;;;16.70;99.90;;;;;;5090872;28;20079;-92
2023/10/19 07:56:05;;;;;;;1.23;0.45;;;16.80;99.90;;;;;;5110115;28;20078;-92
2023/10/19 07:58:33;;;;;;;0.30;0.30;;;16.80;99.90;;;;;;5110635;28;20508;-92
2023/10/19 08:01:01;;;;;;;1.02;0.40;;;16.80;99.90;;;;;;5093420;28;20052;-93
2023/10/19 08:03:29;;;;;;;0.28;0.28;;;16.80;99.90;;;;;;5109280;28;20513;-93
2023/10/19 08:05:57;;;;;;;0.95;0.63;;;16.80;99.90;;;;;;5092333;28;20531;-90
2023/10/19 08:08:33;;;;;;;0.93;0.38;;;16.80;99.90;;;;;;5109538;28;20055;-92
2023/10/19 08:11:00;;;;;;;1.52;0.50;;;16.80;1.00;;;;;;5075933;28;20055;-92
2023/10/19 08:13:29;;;;;;;0.70;0.30;;;16.80;1.00;;;;;;5087596;28;20082;-92
2023/10/19 08:15:59;;;;;;;1.17;0.40;;;16.90;1.00;;;;;;5071441;28;20127;-87
2023/10/19 08:18:26;;;;;;;1.05;0.47;;;17.00;99.90;;;;;;5083078;28;20087;-87
2023/10/19 08:20:55;;;;;;;2.47;0.57;;;17.00;99.90;;;;;;5103773;28;20749;-91
2023/10/19 08:23:27;;;;;;;1.13;0.52;;;17.00;99.90;;;;;;5064514;28;20455;-90
2023/10/19 08:25:54;;;;;;;0.88;0.43;;;17.00;99.90;;;;;;5088926;28;20086;-90
2023/10/19 08:28:25;;;;;;;1.05;0.47;;;17.10;99.90;;;;;;5070344;28;20040;-90
2023/10/19 08:31:01;;;;;;;0.85;0.50;;;17.20;99.90;;;;;;5085030;28;20056;-90
2023/10/19 08:33:30;;;;;;;1.20;0.40;;;17.20;1.00;;;;;;5085361;28;20076;-89
2023/10/19 08:36:05;;;;;;;1.48;0.50;;;17.30;1.00;;;;;;5066899;28;20224;-90
2023/10/19 08:38:34;;;;;;;0.57;0.40;;;17.30;99.90;;;;;;5084739;28;20055;-90
2023/10/19 08:41:03;;;;;;;1.70;0.80;;;17.40;99.90;;;;;;5068347;28;20052;-90
2023/10/19 08:43:33;;;;;;;2.60;1.00;;;17.50;1.00;;;;;;5078774;28;20055;-91
2023/10/19 08:46:03;;;;;;;1.13;0.50;;;17.50;99.90;;;;;;5087567;28;20044;-89
2023/10/19 08:48:34;;;;;;;0.73;0.35;;;17.50;99.90;;;;;;5099096;28;20482;-90
2023/10/19 08:51:03;;;;;;;0.75;0.40;;;17.60;99.90;;;;;;5069706;28;20051;-90
2023/10/19 08:53:31;;;;;;;0.45;0.32;;;17.60;99.90;;;;;;5113442;28;20051;-91
2023/10/19 08:56:00;;;;;;;0.98;0.55;;;17.60;99.90;;;;;;5093870;28;20052;-90
2023/10/19 08:58:27;;;;;;;1.65;0.60;;;17.60;99.90;;;;;;5102554;28;20567;-90
2023/10/19 09:00:55;;;;;;;0.73;0.43;;;17.60;20.20;;;;;;5091225;28;20074;-91
2023/10/19 09:03:25;;;;;;;0.85;0.45;;;17.60;99.90;;;;;;5080769;28;20569;-91
2023/10/19 09:05:54;;;;;;;0.82;0.50;;;17.70;99.90;;;;;;5072172;28;20047;-91
2023/10/19 09:08:22;;;;;;;0.63;0.45;;;17.80;99.90;;;;;;5084604;28;20059;-91
2023/10/19 09:10:52;;;;;;;1.08;0.63;;;18.00;99.90;;;;;;5082933;28;20056;-88
2023/10/19 09:13:22;;;;;;;2.78;0.60;;;18.10;1.00;;;;;;5082233;28;20044;-88
2023/10/19 09:15:55;;;;;;;1.10;0.45;;;18.10;99.90;;;;;;5097852;28;20059;-89
2023/10/19 09:18:27;;;;;;;0.88;0.60;;;18.10;99.90;;;;;;5103560;28;20075;-89
2023/10/19 09:21:07;;;;;;;1.02;0.40;;;18.00;99.90;;;;;;5096937;28;20054;-89
2023/10/19 09:23:38;;;;;;;1.45;0.57;;;18.00;72.40;;;;;;5101986;28;20058;-89
2023/10/19 09:26:07;;;;;;;0.85;0.40;;;18.00;1.00;;;;;;5100691;28;20059;-89
2023/10/19 09:28:36;;;;;;;1.63;0.60;;;18.00;1.00;;;;;;5091032;28;20083;-89
2023/10/19 09:31:03;;;;;;;0.82;0.40;;;18.00;99.90;;;;;;5077894;28;20074;-89
2023/10/19 09:33:33;;;;;;;1.20;0.60;;;17.90;1.00;;;;;;5083672;28;20100;-88
2023/10/19 09:36:04;;;;;;;1.73;0.60;;;17.80;1.00;;;;;;5084518;28;20138;-89
2023/10/19 09:38:32;;;;;;;0.60;0.40;;;17.90;1.00;;;;;;5105629;28;20197;-89
2023/10/19 09:41:03;;;;;;;1.38;0.47;;;17.80;99.90;;;;;;5082724;28;20051;-89
2023/10/19 09:43:34;;;;;;;1.15;0.60;;;17.80;99.90;;;;;;5096498;28;20085;-89
2023/10/19 09:46:05;;;;;;;1.02;0.43;;;17.90;99.90;;;;;;5068686;28;20135;-88
2023/10/19 09:48:41;;;;;;;1.67;0.77;;;17.80;99.90;;;;;;5089124;28;20064;-89
2023/10/19 09:51:09;;;;;;;1.05;0.57;;;17.70;99.90;;;;;;5086209;28;20078;-88
2023/10/19 09:54:03;;;;;;;1.23;0.63;;;17.70;99.90;;;;;;5094100;28;20055;-89
2023/10/19 09:56:34;;;;;;;0.82;0.50;;;17.70;73.60;;;;;;5069463;28;20114;-89
2023/10/19 09:59:22;;;;;;;0.75;0.60;;;17.80;1.00;;;;;;5067759;28;20062;-89
2023/10/19 10:02:17;;;;;;;1.60;0.63;;;17.90;99.90;;;;;;5097013;28;20051;-89
2023/10/19 10:04:48;;;;;;;1.98;0.80;;;18.00;99.90;;;;;;5099716;28;20082;-89
2023/10/19 10:07:16;;;;;;;1.85;0.60;;;18.30;93.30;;;;;;5078167;28;20055;-88
2023/10/19 10:09:57;;;;;;;1.13;0.52;;;18.40;18.60;;;;;;5076949;28;20128;-89
2023/10/19 10:12:25;;;;;;;1.92;0.65;;;18.50;99.90;;;;;;5105193;28;20587;-87
2023/10/19 10:14:58;;;;;;;0.93;0.40;;;18.50;99.90;;;;;;5106257;28;20083;-89
2023/10/19 10:17:29;;;;;;;1.35;0.50;;;18.60;99.90;;;;;;5094813;28;20048;-89
2023/10/19 10:20:17;;;;;;;0.55;0.32;;;18.60;99.90;;;;;;5087061;28;20059;-90
2023/10/19 10:22:45;;;;;;;1.70;0.70;;;18.50;99.90;;;;;;5105969;28;20153;-89
2023/10/19 10:25:30;;;;;;;1.33;0.50;;;18.50;99.90;;;;;;5058923;28;20056;-89
2023/10/19 10:27:57;;;;;;;0.52;0.30;;;18.50;99.90;;;;;;5098684;28;20449;-89
2023/10/19 10:30:28;;;;;;;1.73;0.50;;;18.60;99.90;;;;;;5098605;28;20048;-90
2023/10/19 10:32:56;;;;;;;0.65;0.40;;;18.70;99.90;;;;;;5093408;28;20043;-91
2023/10/19 10:35:39;;;;;;;1.52;0.75;;;18.80;99.90;;;;;;5078265;28;20150;-91
2023/10/19 10:38:12;;;;;;;1.25;0.50;;;18.80;99.90;;;;;;5095713;28;20536;-91
2023/10/19 10:40:47;;;;;;;1.63;0.60;;;18.90;99.90;;;;;;5079158;28;20048;-91
2023/10/19 10:43:18;;;;;;;1.15;0.50;;;19.00;99.90;;;;;;5113472;28;20481;-90
2023/10/19 10:45:45;;;;;;;1.27;0.50;;;19.00;99.90;;;;;;5073618;28;20074;-88
2023/10/19 10:48:13;;;;;;;0.65;0.40;;;19.00;99.90;;;;;;5087069;28;20105;-87
2023/10/19 10:50:41;;;;;;;1.08;0.55;;;18.90;99.90;;;;;;5052065;28;20048;-86
2023/10/19 10:53:11;;;;;;;0.98;0.47;;;18.80;99.90;;;;;;5064170;28;20079;-87
2023/10/19 10:55:39;;;;;;;1.10;0.55;;;18.60;99.90;;;;;;5071537;28;20283;-87
2023/10/19 10:58:06;;;;;;;1.08;0.47;;;18.50;99.90;;;;;;5070649;28;20060;-88
2023/10/19 11:00:34;;;;;;;1.65;0.77;;;18.40;99.90;;;;;;5066411;28;20052;-88
2023/10/19 11:03:07;;;;;;;1.25;0.77;;;18.30;99.90;;;;;;5093961;28;20517;-89
2023/10/19 11:05:36;;;;;;;1.42;0.70;;;18.30;1.00;;;;;;5093775;28;20100;-89
2023/10/19 11:08:13;;;;;;;1.23;0.60;;;18.30;1.00;;;;;;5092284;28;20081;-90
2023/10/19 11:10:46;;;;;;;1.42;0.60;;;18.30;1.00;;;;;;5086376;28;20063;-90
2023/10/19 11:13:14;;;;;;;1.50;0.60;;;18.30;1.00;;;;;;5099020;28;20119;-91
2023/10/19 11:15:57;;;;;;;0.65;0.35;;;18.40;1.00;;;;;;5062610;28;20052;-89
2023/10/19 11:18:32;;;;;;;0.40;0.40;;;18.50;99.90;;;;;;5082243;28;20091;-89
2023/10/19 11:21:04;;;;;;;2.22;0.70;;;18.60;99.90;;;;;;5088485;28;20056;-88
2023/10/19 11:23:57;;;;;;;1.30;0.65;;;18.70;99.90;;;;;;5070929;28;20112;-88
2023/10/19 11:26:31;;;;;;;0.40;0.40;;;18.90;99.90;;;;;;5090190;28;20063;-88
2023/10/19 11:29:04;;;;;;;0.85;0.40;;;19.00;99.90;;;;;;5109700;28;20143;-88
2023/10/19 11:31:41;;;;;;;1.05;0.40;;;19.20;99.90;;;;;;5071806;28;20089;-86
2023/10/19 11:34:18;;;;;;;0.68;0.50;;;19.30;99.90;;;;;;5061789;28;20055;-85
2023/10/19 11:36:46;;;;;;;1.25;0.73;;;19.40;99.90;;;;;;5062480;28;20146;-87
2023/10/19 11:39:13;;;;;;;0.90;0.57;;;19.50;99.90;;;;;;5086806;28;20052;-87
2023/10/19 11:41:40;;;;;;;1.05;0.47;;;19.40;99.90;;;;;;5082400;28;20059;-83
2023/10/19 11:44:08;;;;;;;1.67;1.02;;;19.60;99.90;;;;;;5083553;28;20407;-83
2023/10/19 11:46:36;;;;;;;1.90;0.60;;;19.60;99.90;;;;;;5067818;28;20051;-88
2023/10/19 11:49:03;;;;;;;1.38;0.80;;;19.60;99.90;;;;;;5051142;28;20142;-86
2023/10/19 11:51:31;;;;;;;0.60;0.32;;;19.50;99.90;;;;;;5063271;28;20040;-88
2023/10/19 11:53:59;;;;;;;1.65;0.70;;;19.40;99.90;;;;;;5067117;28;20060;-86
2023/10/19 11:56:26;;;;;;;2.38;0.80;;;19.40;99.90;;;;;;5089167;28;20529;-87
2023/10/19 11:58:55;;;;;;;0.80;0.47;;;19.40;99.90;;;;;;5100096;28;20052;-87
2023/10/19 12:01:25;;;;;;;1.58;0.65;;;19.40;99.90;;;;;;5082752;28;20075;-87
2023/10/19 12:03:52;;;;;;;0.47;0.30;;;19.60;98.10;;;;;;5099766;28;20101;-87
2023/10/19 12:06:20;;;;;;;0.85;0.55;;;19.70;93.90;;;;;;5069082;28;20161;-87
2023/10/19 12:08:47;;;;;;;1.40;0.50;;;19.70;94.60;;;;;;5101163;28;20044;-87
2023/10/19 12:11:18;;;;;;;1.02;0.60;;;19.70;46.50;;;;;;5069096;28;20495;-87
2023/10/19 12:13:45;;;;;;;1.60;0.93;;;19.90;79.50;;;;;;5071264;28;20501;-88
2023/10/19 12:16:12;;;;;;;0.90;0.45;;;20.10;54.60;;;;;;5069968;28;20147;-85
2023/10/19 12:18:41;;;;;;;1.38;0.60;;;20.30;33.40;;;;;;5062896;28;20055;-87
2023/10/19 12:21:11;;;;;;;2.22;0.70;;;20.20;18.60;;;;;;5085291;28;20086;-87
2023/10/19 12:23:40;;;;;;;1.40;0.50;;;20.10;18.70;;;;;;5108267;28;20044;-88
2023/10/19 12:26:14;;;;;;;1.10;0.63;;;20.10;10.10;;;;;;5089092;28;20047;-87
2023/10/19 12:28:51;;;;;;;0.80;0.50;;;20.20;9.60;;;;;;5090545;28;20156;-87
2023/10/19 12:31:23;;;;;;;1.33;0.70;;;20.50;14.20;;;;;;5070316;28;20056;-88
2023/10/19 12:33:50;;;;;;;0.50;0.50;;;20.70;1.00;;;;;;5098727;28;20104;-89
2023/10/19 12:36:32;;;;;;;0.93;0.50;;;21.00;1.00;;;;;;5083413;28;20048;-88
2023/10/19 12:38:59;;;;;;;1.40;0.50;;;21.20;1.00;;;;;;5069601;28;20067;-86
2023/10/19 12:41:29;;;;;;;1.25;0.70;;;21.50;1.00;;;;;;5082455;28;20124;-87
2023/10/19 12:44:08;;;;;;;1.75;0.65;;;22.00;1.00;;;;;;5099029;28;20060;-89
2023/10/19 12:46:41;;;;;;;1.75;0.75;;;22.00;1.00;;;;;;5073531;28;20048;-89
2023/10/19 12:49:13;;;;;;;1.98;0.60;;;21.80;1.00;;;;;;5080662;28;20436;-86
2023/10/19 12:51:45;;;;;;;1.92;0.80;;;21.50;1.00;;;;;;5083934;28;20599;-88
2023/10/19 12:54:15;;;;;;;1.95;0.80;;;21.30;1.00;;;;;;5066415;28;20055;-88
2023/10/19 12:56:43;;;;;;;2.38;1.33;;;21.10;1.00;;;;;;5064625;28;20489;-88
2023/10/19 12:59:11;;;;;;;1.27;0.50;;;21.10;1.00;;;;;;5094163;28;20759;-88
2023/10/19 13:01:39;;;;;;;0.65;0.47;;;21.60;1.00;;;;;;5073140;28;20332;-87
2023/10/19 13:04:13;;;;;;;2.15;0.80;;;22.40;1.00;;;;;;5079280;28;20135;-89
2023/10/19 13:06:41;;;;;;;1.83;0.98;;;22.90;1.00;;;;;;5065172;28;20059;-86
2023/10/19 13:09:09;;;;;;;1.05;0.50;;;23.30;1.00;;;;;;5062191;28;20197;-86
2023/10/19 13:11:36;;;;;;;1.10;0.60;;;23.80;1.00;;;;;;5064379;28;20113;-87
2023/10/19 13:14:06;;;;;;;0.90;0.50;;;24.10;1.00;;;;;;5082526;28;20639;-84
2023/10/19 13:16:33;;;;;;;1.00;0.60;;;24.40;1.00;;;;;;5061796;28;20399;-88
2023/10/19 13:19:08;;;;;;;1.15;0.52;;;24.60;1.00;;;;;;5068676;28;20542;-88
2023/10/19 13:21:37;;;;;;;1.67;0.60;;;24.60;1.00;;;;;;5049632;28;20070;-87
2023/10/19 13:24:05;;;;;;;1.17;0.60;;;24.60;1.00;;;;;;5088652;28;20374;-87
2023/10/19 13:26:34;;;;;;;0.88;0.55;;;24.70;1.00;;;;;;5046707;28;20184;-87
2023/10/19 13:29:03;;;;;;;0.70;0.40;;;24.60;1.00;;;;;;5080886;28;20052;-89